createdAt,value
2019-05-25T00:00:18.625Z,12.60
2019-05-25T00:02:47.799Z,12.70
2019-05-25T00:05:17.132Z,12.70
2019-05-25T00:07:45.969Z,12.70
2019-05-25T00:10:15.036Z,12.70
2019-05-25T00:12:43.928Z,12.70
2019-05-25T00:15:13.376Z,12.70
2019-05-25T00:17:42.197Z,12.70
2019-05-25T00:20:11.477Z,12.70
2019-05-25T00:22:40.377Z,12.70
2019-05-25T00:25:09.394Z,12.70
2019-05-25T00:27:38.599Z,12.70
2019-05-25T00:30:08.176Z,12.70
2019-05-25T00:32:36.985Z,12.70
2019-05-25T00:35:06.105Z,12.70
2019-05-25T00:37:35.177Z,12.70
2019-05-25T00:40:04.413Z,12.70
2019-05-25T00:42:33.280Z,12.70
2019-05-25T00:45:02.267Z,12.70
2019-05-25T00:47:31.117Z,12.70
2019-05-25T00:49:59.959Z,12.70
2019-05-25T00:52:29.052Z,12.80
2019-05-25T00:54:58.437Z,12.70
2019-05-25T00:57:27.258Z,12.70
2019-05-25T00:59:56.053Z,12.70
2019-05-25T01:02:24.945Z,12.70
2019-05-25T01:04:53.773Z,12.70
2019-05-25T01:07:22.803Z,12.70
2019-05-25T01:09:51.701Z,12.60
2019-05-25T01:12:20.530Z,12.60
2019-05-25T01:14:49.650Z,12.60
2019-05-25T01:17:18.861Z,12.50
2019-05-25T01:19:48.112Z,12.40
2019-05-25T01:22:17.169Z,12.40
2019-05-25T01:24:46.029Z,12.30
2019-05-25T01:27:15.000Z,12.20
2019-05-25T01:29:43.831Z,12.10
2019-05-25T01:32:12.698Z,12.10
2019-05-25T01:34:41.582Z,12.10
2019-05-25T01:37:10.441Z,12.10
2019-05-25T01:39:39.578Z,12.10
2019-05-25T01:42:08.696Z,12.10
2019-05-25T01:44:38.066Z,12.10
2019-05-25T01:47:07.199Z,12.10
2019-05-25T01:49:36.009Z,12.10
2019-05-25T01:52:04.990Z,12.10
2019-05-25T01:54:34.450Z,12.10
2019-05-25T01:57:03.388Z,12.20
2019-05-25T01:59:32.326Z,12.10
2019-05-25T02:02:01.234Z,12.10
2019-05-25T02:04:30.119Z,12.10
2019-05-25T02:06:58.951Z,12.00
2019-05-25T02:09:27.765Z,12.00
2019-05-25T02:11:56.662Z,11.90
2019-05-25T02:14:25.916Z,11.90
2019-05-25T02:16:54.730Z,11.90
2019-05-25T02:19:23.530Z,11.90
2019-05-25T02:21:52.505Z,11.90
2019-05-25T02:24:21.404Z,11.90
2019-05-25T02:26:50.645Z,11.90
2019-05-25T02:29:20.177Z,11.90
2019-05-25T02:31:48.989Z,11.90
2019-05-25T02:34:17.922Z,11.90
2019-05-25T02:36:46.860Z,11.90
2019-05-25T02:39:15.773Z,11.90
2019-05-25T02:41:44.578Z,11.80
2019-05-25T02:44:13.933Z,11.80
2019-05-25T02:46:42.883Z,11.80
2019-05-25T02:49:12.446Z,11.80
2019-05-25T02:51:41.597Z,11.80
2019-05-25T02:54:10.433Z,11.70
2019-05-25T02:56:39.314Z,11.70
2019-05-25T02:59:08.193Z,11.70
2019-05-25T03:01:37.151Z,11.70
2019-05-25T03:04:06.368Z,11.70
2019-05-25T03:06:35.448Z,11.70
2019-05-25T03:09:06.941Z,11.70
2019-05-25T03:11:35.924Z,11.70
2019-05-25T03:14:05.253Z,11.70
2019-05-25T03:16:34.061Z,11.70
2019-05-25T03:19:03.305Z,11.70
2019-05-25T03:21:32.780Z,11.80
2019-05-25T03:24:01.612Z,11.80
2019-05-25T03:26:30.429Z,11.80
2019-05-25T03:28:59.350Z,11.80
2019-05-25T03:31:28.161Z,11.90
2019-05-25T03:33:57.079Z,11.80
2019-05-25T03:36:25.889Z,11.80
2019-05-25T03:38:54.686Z,11.80
2019-05-25T03:41:23.949Z,11.80
2019-05-25T03:43:52.765Z,11.80
2019-05-25T03:46:21.568Z,11.80
2019-05-25T03:48:50.565Z,11.70
2019-05-25T03:51:19.620Z,11.70
2019-05-25T03:53:48.607Z,11.70
2019-05-25T03:56:17.522Z,11.80
2019-05-25T03:58:46.441Z,11.70
2019-05-25T04:01:15.336Z,11.80
2019-05-25T04:03:44.433Z,11.80
2019-05-25T04:06:13.316Z,11.90
2019-05-25T04:08:42.129Z,11.90
2019-05-25T04:11:11.058Z,12.00
2019-05-25T04:13:39.945Z,12.00
2019-05-25T04:16:08.777Z,12.10
2019-05-25T04:18:37.688Z,12.10
2019-05-25T04:21:06.913Z,12.20
2019-05-25T04:23:35.937Z,12.20
2019-05-25T04:26:20.920Z,12.30
2019-05-25T04:28:35.597Z,12.30
2019-05-25T04:31:04.551Z,12.30
2019-05-25T04:33:33.369Z,12.30
2019-05-25T04:36:02.630Z,12.40
2019-05-25T04:38:31.471Z,12.40
2019-05-25T04:41:00.286Z,12.60
2019-05-25T04:43:29.102Z,12.70
2019-05-25T04:45:58.514Z,12.90
2019-05-25T04:48:27.757Z,13.00
2019-05-25T04:50:56.660Z,13.20
2019-05-25T04:53:25.948Z,13.30
2019-05-25T04:55:55.124Z,13.50
2019-05-25T04:58:23.988Z,13.60
2019-05-25T05:00:52.826Z,13.80
2019-05-25T05:03:21.705Z,13.90
2019-05-25T05:05:50.793Z,14.10
2019-05-25T05:08:19.693Z,14.20
2019-05-25T05:10:48.674Z,14.40
2019-05-25T05:13:17.474Z,14.50
2019-05-25T05:15:46.265Z,14.60
2019-05-25T05:18:15.177Z,14.60
2019-05-25T05:20:44.289Z,14.60
2019-05-25T05:23:13.352Z,14.60
2019-05-25T05:25:42.320Z,14.50
2019-05-25T05:28:11.265Z,14.40
2019-05-25T05:30:40.267Z,14.40
2019-05-25T05:33:09.259Z,14.30
2019-05-25T05:35:39.175Z,14.30
2019-05-25T05:38:08.298Z,14.30
2019-05-25T05:40:38.201Z,14.30
2019-05-25T05:43:10.919Z,14.30
2019-05-25T05:45:41.909Z,14.30
2019-05-25T05:48:11.824Z,14.40
2019-05-25T05:50:40.940Z,14.50
2019-05-25T05:53:09.920Z,14.60
2019-05-25T05:55:39.095Z,14.60
2019-05-25T05:58:07.910Z,14.60
2019-05-25T06:00:37.121Z,14.70
2019-05-25T06:03:05.942Z,14.60
2019-05-25T06:05:34.879Z,14.50
2019-05-25T06:08:03.885Z,14.50
2019-05-25T06:10:32.722Z,14.50
2019-05-25T06:13:01.708Z,14.70
2019-05-25T06:15:30.997Z,14.80
2019-05-25T06:17:59.865Z,14.90
2019-05-25T06:20:29.161Z,15.10
2019-05-25T06:22:58.336Z,15.20
2019-05-25T06:25:27.251Z,15.40
2019-05-25T06:27:56.402Z,15.50
2019-05-25T06:30:25.401Z,15.60
2019-05-25T06:32:54.233Z,15.70
2019-05-25T06:35:23.402Z,16.00
2019-05-25T06:37:52.307Z,16.30
2019-05-25T06:40:21.440Z,16.50
2019-05-25T06:42:50.671Z,16.80
2019-05-25T06:45:20.017Z,17.30
2019-05-25T06:50:17.766Z,18.40
2019-05-25T06:52:46.549Z,18.90
2019-05-25T06:55:15.734Z,19.40
2019-05-25T06:57:44.796Z,19.70
2019-05-25T07:00:14.034Z,20.00
2019-05-25T07:02:42.973Z,20.40
2019-05-25T07:05:12.864Z,20.70
2019-05-25T07:07:42.073Z,21.00
2019-05-25T07:10:11.129Z,21.30
2019-05-25T07:12:39.936Z,21.50
2019-05-25T07:15:10.644Z,21.60
2019-05-25T07:17:39.556Z,21.70
2019-05-25T07:20:09.440Z,21.70
2019-05-25T07:22:38.478Z,21.80
2019-05-25T07:25:07.722Z,22.00
2019-05-25T07:27:36.744Z,22.30
2019-05-25T07:30:05.842Z,22.50
2019-05-25T07:32:35.085Z,22.70
2019-05-25T07:35:04.457Z,22.80
2019-05-25T07:37:33.676Z,23.10
2019-05-25T07:40:02.597Z,23.30
2019-05-25T07:42:31.418Z,23.50
2019-05-25T07:45:00.314Z,23.60
2019-05-25T07:47:29.264Z,23.80
2019-05-25T07:49:58.166Z,23.90
2019-05-25T07:52:27.400Z,24.00
2019-05-25T07:54:56.295Z,24.30
2019-05-25T07:57:28.409Z,24.40
2019-05-25T07:59:55.726Z,24.60
2019-05-25T08:02:25.397Z,24.80
2019-05-25T08:04:54.624Z,24.70
2019-05-25T08:07:23.420Z,24.80
2019-05-25T08:09:52.214Z,24.90
2019-05-25T08:12:21.113Z,25.10
2019-05-25T08:14:49.977Z,25.30
2019-05-25T08:17:18.893Z,25.50
2019-05-25T08:19:47.717Z,25.60
2019-05-25T08:22:16.861Z,25.70
2019-05-25T08:24:45.832Z,25.80
2019-05-25T08:27:14.849Z,25.80
2019-05-25T08:29:43.928Z,25.70
2019-05-25T08:32:12.942Z,25.80
2019-05-25T08:34:41.873Z,25.70
2019-05-25T08:37:10.774Z,25.80
2019-05-25T08:39:39.641Z,25.90
2019-05-25T08:42:08.545Z,26.10
2019-05-25T08:44:37.692Z,26.20
2019-05-25T08:47:06.573Z,26.40
2019-05-25T08:49:35.464Z,26.60
2019-05-25T08:52:04.381Z,26.60
2019-05-25T08:54:33.181Z,26.80
2019-05-25T08:57:02.151Z,26.80
2019-05-25T08:59:31.093Z,26.90
2019-05-25T09:02:00.005Z,27.10
2019-05-25T09:04:28.850Z,27.10
2019-05-25T09:06:58.097Z,27.30
2019-05-25T09:09:27.265Z,27.30
2019-05-25T09:11:56.171Z,27.30
2019-05-25T09:14:25.054Z,27.50
2019-05-25T09:16:54.258Z,27.80
2019-05-25T09:19:23.142Z,28.00
2019-05-25T09:22:01.947Z,28.00
2019-05-25T09:24:22.599Z,28.10
2019-05-25T09:26:51.402Z,28.40
2019-05-25T09:29:20.198Z,28.80
2019-05-25T09:31:49.073Z,29.20
2019-05-25T09:34:17.945Z,29.70
2019-05-25T09:36:46.750Z,30.10
2019-05-25T09:39:15.788Z,30.30
2019-05-25T09:41:44.669Z,30.50
2019-05-25T09:44:13.628Z,30.60
2019-05-25T09:46:42.457Z,30.80
2019-05-25T09:49:11.858Z,30.70
2019-05-25T09:51:40.702Z,30.20
2019-05-25T09:54:10.870Z,30.00
2019-05-25T09:56:40.366Z,29.90
2019-05-25T09:59:19.838Z,29.80
2019-05-25T10:01:40.481Z,29.70
2019-05-25T10:04:09.530Z,29.00
2019-05-25T10:06:38.472Z,27.70
2019-05-25T10:09:08.180Z,26.50
2019-05-25T10:11:36.966Z,25.60
2019-05-25T10:14:06.121Z,24.50
2019-05-25T10:16:34.945Z,23.90
2019-05-25T10:19:03.817Z,23.70
2019-05-25T10:21:32.648Z,23.60
2019-05-25T10:24:01.472Z,23.50
2019-05-25T10:26:30.385Z,23.40
2019-05-25T10:28:59.190Z,23.50
2019-05-25T10:31:28.020Z,23.40
2019-05-25T10:33:56.916Z,23.30
2019-05-25T10:36:25.785Z,23.50
2019-05-25T10:38:54.733Z,23.60
2019-05-25T10:41:23.921Z,23.80
2019-05-25T10:43:53.150Z,23.90
2019-05-25T10:46:22.297Z,24.00
2019-05-25T10:48:51.442Z,23.90
2019-05-25T10:51:20.604Z,23.60
2019-05-25T10:53:49.471Z,23.80
2019-05-25T10:56:18.558Z,24.10
2019-05-25T10:58:47.608Z,24.40
2019-05-25T11:01:16.561Z,24.60
2019-05-25T11:03:45.383Z,24.70
2019-05-25T11:06:14.438Z,24.90
2019-05-25T11:08:43.427Z,25.10
2019-05-25T11:11:12.388Z,25.10
2019-05-25T11:13:41.194Z,25.00
2019-05-25T11:16:10.014Z,24.70
2019-05-25T11:18:39.221Z,24.40
2019-05-25T11:21:08.162Z,24.30
2019-05-25T11:23:37.096Z,24.30
2019-05-25T11:26:05.893Z,24.40
2019-05-25T11:28:34.773Z,24.70
2019-05-25T11:31:03.650Z,25.00
2019-05-25T11:33:35.859Z,25.20
2019-05-25T11:36:03.049Z,25.20
2019-05-25T11:38:31.857Z,25.20
2019-05-25T11:41:00.838Z,25.20
2019-05-25T11:43:29.784Z,25.10
2019-05-25T11:45:58.678Z,24.90
2019-05-25T11:48:27.633Z,24.60
2019-05-25T11:50:56.553Z,24.40
2019-05-25T11:53:25.555Z,24.30
2019-05-25T11:55:54.606Z,24.10
2019-05-25T11:58:23.512Z,24.20
2019-05-25T12:00:52.418Z,24.20
2019-05-25T12:03:21.336Z,24.20
2019-05-25T12:05:50.313Z,24.20
2019-05-25T12:08:19.172Z,24.30
2019-05-25T12:10:48.233Z,24.40
2019-05-25T12:13:17.129Z,24.50
2019-05-25T12:15:45.993Z,24.70
2019-05-25T12:18:14.973Z,24.80
2019-05-25T12:20:43.880Z,25.00
2019-05-25T12:23:12.936Z,25.20
2019-05-25T12:25:42.081Z,25.30
2019-05-25T12:28:10.889Z,25.20
2019-05-25T12:30:41.300Z,25.10
2019-05-25T12:33:10.601Z,25.00
2019-05-25T12:35:39.677Z,25.00
2019-05-25T12:38:08.541Z,25.10
2019-05-25T12:40:52.436Z,25.30
2019-05-25T12:43:08.012Z,25.70
2019-05-25T12:45:36.926Z,26.00
2019-05-25T12:48:06.320Z,26.40
2019-05-25T12:50:35.713Z,26.80
2019-05-25T12:53:04.659Z,27.30
2019-05-25T12:55:33.640Z,27.70
2019-05-25T12:58:02.650Z,28.50
2019-05-25T13:00:31.538Z,28.80
2019-05-25T13:03:00.342Z,28.70
2019-05-25T13:05:34.282Z,28.50
2019-05-25T13:08:00.113Z,28.30
2019-05-25T13:10:29.193Z,28.10
2019-05-25T13:13:01.416Z,27.90
2019-05-25T13:15:29.117Z,27.70
2019-05-25T13:17:58.009Z,27.20
2019-05-25T13:20:26.980Z,26.70
2019-05-25T13:22:55.864Z,26.40
2019-05-25T13:25:25.386Z,26.10
2019-05-25T13:27:54.215Z,25.70
2019-05-25T13:30:23.386Z,25.60
2019-05-25T13:32:52.361Z,25.50
2019-05-25T13:35:21.318Z,25.40
2019-05-25T13:37:50.604Z,25.30
2019-05-25T13:40:19.843Z,25.10
2019-05-25T13:42:48.737Z,24.90
2019-05-25T13:45:18.063Z,24.80
2019-05-25T13:47:46.830Z,24.80
2019-05-25T13:50:16.005Z,24.90
2019-05-25T13:52:44.789Z,25.00
2019-05-25T13:55:13.878Z,25.20
2019-05-25T13:57:42.700Z,25.30
2019-05-25T14:00:12.201Z,25.20
2019-05-25T14:02:41.308Z,25.00
2019-05-25T14:05:10.541Z,24.70
2019-05-25T14:07:39.753Z,24.40
2019-05-25T14:10:09.121Z,24.20
2019-05-25T14:12:38.336Z,23.90
2019-05-25T14:15:07.802Z,23.70
2019-05-25T14:17:37.011Z,23.50
2019-05-25T14:20:06.833Z,23.40
2019-05-25T14:22:35.822Z,23.20
2019-05-25T14:25:05.199Z,23.10
2019-05-25T14:27:34.109Z,23.10
2019-05-25T14:30:03.068Z,23.10
2019-05-25T14:32:31.868Z,23.00
2019-05-25T14:35:00.737Z,22.70
2019-05-25T14:37:29.641Z,22.40
2019-05-25T14:39:58.482Z,22.10
2019-05-25T14:44:55.808Z,21.50
2019-05-25T14:47:24.977Z,21.00
2019-05-25T14:49:54.259Z,20.30
2019-05-25T14:52:23.105Z,19.90
2019-05-25T14:54:52.106Z,19.50
2019-05-25T14:57:20.995Z,19.00
2019-05-25T14:59:49.841Z,18.30
2019-05-25T15:02:18.861Z,17.90
2019-05-25T15:04:47.993Z,17.50
2019-05-25T15:07:17.148Z,17.20
2019-05-25T15:09:46.026Z,17.00
2019-05-25T15:12:14.910Z,16.80
2019-05-25T15:14:43.781Z,16.60
2019-05-25T15:17:13.008Z,16.50
2019-05-25T15:19:42.020Z,16.40
2019-05-25T15:22:11.264Z,16.40
2019-05-25T15:24:40.523Z,16.20
2019-05-25T15:27:09.446Z,16.10
2019-05-25T15:29:38.298Z,16.00
2019-05-25T15:32:19.394Z,15.80
2019-05-25T15:34:37.900Z,15.70
2019-05-25T15:37:07.066Z,15.60
2019-05-25T15:39:36.069Z,15.50
2019-05-25T15:42:05.112Z,15.50
2019-05-25T15:44:33.978Z,15.40
2019-05-25T15:47:05.022Z,15.30
2019-05-25T15:49:33.907Z,15.30
2019-05-25T15:52:02.975Z,15.30
2019-05-25T15:54:32.122Z,15.30
2019-05-25T15:57:01.096Z,15.30
2019-05-25T15:59:30.166Z,15.20
2019-05-25T16:01:59.064Z,15.20
2019-05-25T16:04:27.926Z,15.20
2019-05-25T16:06:56.841Z,15.20
2019-05-25T16:09:25.733Z,15.30
2019-05-25T16:11:54.708Z,15.40
2019-05-25T16:14:23.793Z,15.40
2019-05-25T16:16:52.637Z,15.50
2019-05-25T16:19:21.560Z,15.60
2019-05-25T16:21:50.667Z,15.60
2019-05-25T16:24:19.577Z,15.60
2019-05-25T16:26:48.749Z,15.70
2019-05-25T16:29:17.680Z,15.70
2019-05-25T16:31:46.588Z,15.80
2019-05-25T16:34:15.397Z,15.90
2019-05-25T16:36:44.342Z,15.90
2019-05-25T16:39:13.197Z,15.90
2019-05-25T16:41:42.069Z,15.90
2019-05-25T16:44:11.181Z,15.90
2019-05-25T16:46:40.108Z,15.90
2019-05-25T16:49:09.097Z,16.10
2019-05-25T16:51:37.991Z,16.30
2019-05-25T16:54:07.453Z,16.50
2019-05-25T16:56:36.490Z,16.70
2019-05-25T16:59:06.263Z,17.00
2019-05-25T17:01:47.674Z,17.20
2019-05-25T17:04:06.044Z,17.10
2019-05-25T17:06:34.972Z,17.10
2019-05-25T17:09:04.610Z,17.20
2019-05-25T17:11:33.756Z,17.30
2019-05-25T17:14:02.765Z,17.30
2019-05-25T17:16:31.887Z,17.40
2019-05-25T17:19:01.150Z,17.50
2019-05-25T17:21:30.023Z,17.50
2019-05-25T17:23:59.106Z,17.50
2019-05-25T17:26:28.111Z,17.40
2019-05-25T17:28:56.944Z,17.40
2019-05-25T17:31:26.210Z,17.30
2019-05-25T17:33:55.534Z,17.20
2019-05-25T17:36:24.501Z,17.10
2019-05-25T17:38:53.289Z,17.00
2019-05-25T17:41:22.258Z,17.00
2019-05-25T17:43:51.310Z,16.90
2019-05-25T17:46:20.153Z,16.90
2019-05-25T17:48:49.161Z,16.90
2019-05-25T17:51:17.965Z,16.80
2019-05-25T17:53:47.125Z,16.70
2019-05-25T17:56:15.952Z,16.60
2019-05-25T17:58:44.841Z,16.50
2019-05-25T18:01:13.891Z,16.40
2019-05-25T18:03:42.924Z,16.30
2019-05-25T18:06:12.036Z,16.10
2019-05-25T18:08:40.957Z,16.00
2019-05-25T18:11:09.854Z,16.00
2019-05-25T18:13:38.948Z,15.90
2019-05-25T18:16:07.909Z,15.90
2019-05-25T18:18:36.794Z,15.80
2019-05-25T18:21:05.781Z,15.90
2019-05-25T18:23:35.193Z,15.80
2019-05-25T18:26:04.165Z,15.70
2019-05-25T18:28:33.068Z,15.70
2019-05-25T18:31:02.162Z,15.50
2019-05-25T18:33:31.356Z,15.30
2019-05-25T18:36:00.264Z,15.20
2019-05-25T18:38:29.210Z,15.00
2019-05-25T18:40:58.478Z,14.90
2019-05-25T18:43:27.337Z,14.80
2019-05-25T18:45:56.513Z,14.70
2019-05-25T18:48:25.406Z,14.50
2019-05-25T18:50:54.349Z,14.30
2019-05-25T18:53:23.289Z,14.10
2019-05-25T18:55:52.260Z,14.00
2019-05-25T18:58:21.081Z,13.90
2019-05-25T19:00:50.072Z,13.90
2019-05-25T19:03:19.012Z,13.80
2019-05-25T19:05:47.903Z,13.70
2019-05-25T19:08:16.733Z,13.70
2019-05-25T19:10:45.909Z,13.50
2019-05-25T19:13:14.809Z,13.50
2019-05-25T19:15:44.017Z,13.50
2019-05-25T19:18:13.104Z,13.50
2019-05-25T19:20:42.025Z,13.30
2019-05-25T19:23:11.030Z,13.30
2019-05-25T19:25:39.943Z,13.20
2019-05-25T19:28:08.850Z,13.10
2019-05-25T19:30:37.671Z,13.00
2019-05-25T19:33:06.679Z,12.90
2019-05-25T19:35:35.568Z,12.70
2019-05-25T19:38:04.516Z,12.60
2019-05-25T19:40:33.401Z,12.50
2019-05-25T19:43:02.361Z,12.50
2019-05-25T19:45:32.827Z,12.40
2019-05-25T19:48:01.990Z,12.40
2019-05-25T19:50:31.013Z,12.40
2019-05-25T19:52:59.936Z,12.30
2019-05-25T19:55:28.997Z,12.30
2019-05-25T19:57:57.964Z,12.20
2019-05-25T20:00:26.974Z,12.20
2019-05-25T20:02:56.315Z,12.10
2019-05-25T20:05:25.730Z,12.10
2019-05-25T20:07:54.567Z,12.10
2019-05-25T20:10:23.569Z,12.00
2019-05-25T20:12:53.706Z,12.00
2019-05-25T20:15:22.780Z,12.00
2019-05-25T20:17:51.678Z,11.90
2019-05-25T20:20:20.750Z,11.90
2019-05-25T20:22:49.692Z,11.80
2019-05-25T20:25:18.700Z,11.80
2019-05-25T20:27:47.714Z,11.80
2019-05-25T20:30:16.662Z,11.80
2019-05-25T20:32:45.717Z,11.80
2019-05-25T20:35:31.309Z,11.80
2019-05-25T20:37:45.465Z,11.70
2019-05-25T20:40:14.619Z,11.70
2019-05-25T20:42:43.626Z,11.60
2019-05-25T20:45:12.667Z,11.60
2019-05-25T20:47:41.568Z,11.60
2019-05-25T20:50:12.034Z,11.50
2019-05-25T20:52:40.826Z,11.40
2019-05-25T20:55:09.808Z,11.40
2019-05-25T20:57:38.817Z,11.30
2019-05-25T21:00:08.139Z,11.30
2019-05-25T21:02:37.254Z,11.30
2019-05-25T21:05:06.621Z,11.30
2019-05-25T21:07:35.561Z,11.20
2019-05-25T21:10:05.566Z,11.10
2019-05-25T21:12:34.441Z,11.10
2019-05-25T21:15:03.402Z,11.10
2019-05-25T21:17:32.723Z,11.10
2019-05-25T21:20:01.865Z,11.00
2019-05-25T21:22:30.788Z,11.00
2019-05-25T21:25:05.527Z,11.00
2019-05-25T21:27:30.303Z,10.90
2019-05-25T21:29:59.461Z,10.90
2019-05-25T21:32:28.386Z,10.90
2019-05-25T21:34:57.433Z,10.90
2019-05-25T21:37:26.283Z,10.90
2019-05-25T21:39:55.173Z,10.80
2019-05-25T21:42:24.189Z,10.80
2019-05-25T21:44:53.347Z,10.80
2019-05-25T21:47:22.283Z,10.80
2019-05-25T21:49:51.305Z,10.80
2019-05-25T21:52:20.520Z,10.70
2019-05-25T21:54:49.466Z,10.70
2019-05-25T21:57:18.533Z,10.60
2019-05-25T21:59:47.346Z,10.60
2019-05-25T22:02:16.259Z,10.60
2019-05-25T22:04:45.437Z,10.50
2019-05-25T22:07:14.252Z,10.50
2019-05-25T22:09:43.105Z,10.40
2019-05-25T22:12:12.481Z,10.40
2019-05-25T22:14:41.321Z,10.40
2019-05-25T22:17:10.408Z,10.40
2019-05-25T22:19:39.355Z,10.40
2019-05-25T22:22:08.317Z,10.40
2019-05-25T22:24:37.401Z,10.40
2019-05-25T22:27:06.345Z,10.30
2019-05-25T22:29:35.266Z,10.30
2019-05-25T22:32:04.291Z,10.30
2019-05-25T22:34:33.694Z,10.40
2019-05-25T22:37:02.512Z,10.40
2019-05-25T22:39:31.610Z,10.40
2019-05-25T22:42:00.467Z,10.50
2019-05-25T22:44:29.547Z,10.50
2019-05-25T22:46:58.729Z,10.50
2019-05-25T22:49:27.556Z,10.50
2019-05-25T22:51:56.657Z,10.50
2019-05-25T22:54:25.805Z,10.50
2019-05-25T22:56:54.827Z,10.50
2019-05-25T22:59:23.759Z,10.50
2019-05-25T23:01:52.829Z,10.40
2019-05-25T23:04:21.717Z,10.50
2019-05-25T23:06:57.851Z,10.50
2019-05-25T23:09:21.068Z,10.50
2019-05-25T23:11:49.960Z,10.60
2019-05-25T23:14:19.024Z,10.70
2019-05-25T23:16:47.854Z,10.70
2019-05-25T23:19:17.041Z,10.80
2019-05-25T23:21:45.847Z,10.80
2019-05-25T23:24:14.711Z,10.80
2019-05-25T23:26:43.622Z,10.90
2019-05-25T23:29:12.535Z,10.90
2019-05-25T23:31:41.497Z,11.00
2019-05-25T23:34:10.373Z,11.00
2019-05-25T23:36:39.452Z,11.10
2019-05-25T23:39:08.341Z,11.10
2019-05-25T23:41:37.281Z,11.20
2019-05-25T23:44:06.234Z,11.20
2019-05-25T23:46:35.120Z,11.20
2019-05-25T23:49:04.325Z,11.20
2019-05-25T23:51:33.216Z,11.10
2019-05-25T23:54:02.303Z,11.00
2019-05-25T23:56:31.458Z,11.00
2019-05-25T23:59:00.305Z,11.10
